Time;durP1;ratioP1;P1;durP2;ratioP2;P2;SDS_P1;SDS_P2;PMS_P1;PMS_P2;Temp;Humidity;BMP_temperature;BMP_pressure;BME280_temperature;BME280_humidity;BME280_pressure;Samples;Min_cycle;Max_cycle;Signal;HPM_P1;HPM_P2
2022/08/12 00:43:56;;;;;;;5.47;2.90;;;20.30;76.80;;;;;;5073921;28;20524;-51
2022/08/12 00:46:35;;;;;;;4.88;2.60;;;20.30;77.70;;;;;;5073169;28;20495;-44
2022/08/12 00:49:02;;;;;;;3.55;2.42;;;20.30;77.40;;;;;;5072684;28;20521;-46
2022/08/12 00:52:04;;;;;;;4.68;2.75;;;20.30;77.00;;;;;;5073564;28;20090;-42
2022/08/12 00:54:17;;;;;;;7.53;2.50;;;20.30;77.30;;;;;;5073583;28;20053;-50
2022/08/12 00:56:44;;;;;;;4.60;3.08;;;20.20;77.00;;;;;;5072712;28;20514;-47
2022/08/12 00:59:10;;;;;;;7.38;2.90;;;20.20;77.40;;;;;;5074930;28;20492;-47
2022/08/12 01:01:39;;;;;;;3.42;2.35;;;20.20;77.60;;;;;;5071426;28;20143;-47
2022/08/12 01:12:20;;;;;;;4.50;2.85;;;20.00;78.60;;;;;;5061188;28;20049;-51
2022/08/12 01:14:46;;;;;;;5.85;2.80;;;20.00;79.50;;;;;;5071046;28;20123;-52
2022/08/12 01:17:15;;;;;;;6.70;3.10;;;19.90;78.60;;;;;;5073373;28;20555;-51
2022/08/12 01:19:41;;;;;;;4.22;2.67;;;19.90;79.20;;;;;;5060254;28;20055;-49
2022/08/12 01:22:30;;;;;;;3.92;2.55;;;19.90;78.80;;;;;;5065305;28;20047;-48
2022/08/12 01:25:03;;;;;;;3.30;2.75;;;19.90;78.10;;;;;;5067243;28;20128;-47
2022/08/12 01:27:31;;;;;;;6.05;2.78;;;19.80;79.00;;;;;;5060608;28;20041;-48
2022/08/12 01:29:58;;;;;;;4.72;2.65;;;19.80;79.00;;;;;;5067730;28;20503;-48
2022/08/12 01:32:26;;;;;;;4.47;2.67;;;19.80;79.10;;;;;;5071952;28;20047;-47
2022/08/12 01:34:55;;;;;;;8.05;3.33;;;19.70;79.10;;;;;;5068696;28;20323;-43
2022/08/12 01:37:22;;;;;;;4.50;2.85;;;19.70;80.00;;;;;;5062740;28;20095;-44
2022/08/12 01:39:52;;;;;;;5.43;2.97;;;19.70;80.30;;;;;;5068324;28;20376;-47
2022/08/12 01:42:21;;;;;;;6.30;2.72;;;19.70;80.80;;;;;;5073698;28;20059;-49
2022/08/12 01:44:48;;;;;;;4.70;2.72;;;19.60;80.60;;;;;;5073419;28;20078;-47
2022/08/12 01:47:18;;;;;;;5.55;3.20;;;19.60;80.80;;;;;;5073341;28;20079;-48
2022/08/12 01:49:54;;;;;;;6.68;2.80;;;19.60;81.10;;;;;;5054730;28;20049;-44
2022/08/12 01:52:28;;;;;;;3.30;2.67;;;19.50;81.30;;;;;;5074035;28;20045;-49
2022/08/12 01:54:57;;;;;;;5.53;3.20;;;19.50;81.50;;;;;;5073333;28;20059;-46
2022/08/12 01:57:27;;;;;;;9.50;2.75;;;19.50;81.90;;;;;;5070656;28;20052;-44
2022/08/12 01:59:58;;;;;;;6.78;3.75;;;19.50;81.80;;;;;;5056862;28;20056;-38
2022/08/12 02:02:27;;;;;;;5.57;3.23;;;19.40;82.30;;;;;;5065354;28;20087;-45
2022/08/12 02:11:17;;;;;;;3.30;2.47;;;19.30;82.40;;;;;;5073496;28;20048;-48
2022/08/12 02:14:26;;;;;;;4.03;2.92;;;19.30;82.40;;;;;;5071873;28;20044;-42
2022/08/12 02:17:07;;;;;;;5.85;3.45;;;19.30;82.00;;;;;;5052726;28;20445;-49
2022/08/12 02:19:48;;;;;;;3.85;3.17;;;19.20;82.90;;;;;;5063833;28;20142;-47
2022/08/12 02:22:26;;;;;;;6.80;3.67;;;19.20;83.70;;;;;;5071839;28;20392;-48
2022/08/12 02:24:53;;;;;;;5.95;2.85;;;19.10;84.10;;;;;;5073099;28;20048;-46
2022/08/12 02:27:20;;;;;;;5.47;3.00;;;19.10;83.90;;;;;;5071385;28;20048;-47
2022/08/12 02:29:48;;;;;;;9.30;3.35;;;19.10;83.80;;;;;;5071705;28;20072;-48
2022/08/12 02:32:16;;;;;;;4.05;3.00;;;19.10;83.90;;;;;;5073869;28;20044;-51
2022/08/12 02:34:43;;;;;;;3.35;2.95;;;19.00;84.10;;;;;;5060989;28;20135;-51
2022/08/12 02:37:11;;;;;;;4.25;3.15;;;19.00;84.20;;;;;;5053772;28;20056;-46
2022/08/12 02:39:38;;;;;;;6.93;3.30;;;19.00;84.40;;;;;;5072211;28;20052;-47
2022/08/12 02:42:05;;;;;;;5.05;3.17;;;18.90;84.80;;;;;;5072526;28;20501;-48
2022/08/12 02:44:40;;;;;;;5.93;3.50;;;18.90;84.80;;;;;;5064170;28;20045;-46
2022/08/12 02:47:07;;;;;;;5.50;3.20;;;18.90;85.00;;;;;;5056456;28;20123;-41
2022/08/12 02:49:36;;;;;;;4.95;3.25;;;18.80;85.40;;;;;;5052466;28;20170;-47
2022/08/12 02:52:03;;;;;;;6.85;3.30;;;18.80;86.20;;;;;;5062043;28;20416;-48
2022/08/12 02:54:30;;;;;;;5.25;3.50;;;18.80;87.00;;;;;;5065448;28;20053;-49
2022/08/12 02:56:57;;;;;;;6.60;3.63;;;18.70;87.60;;;;;;5070994;28;20044;-48
2022/08/12 02:59:26;;;;;;;4.07;3.13;;;18.70;87.90;;;;;;5064295;28;20399;-47
2022/08/12 03:01:53;;;;;;;7.90;3.13;;;18.70;88.30;;;;;;5071120;28;20454;-44
2022/08/12 03:04:25;;;;;;;8.48;3.30;;;18.70;88.40;;;;;;5070517;28;20057;-52
2022/08/12 03:06:57;;;;;;;;;;;18.60;89.10;;;;;;5069825;28;20131;-47
2022/08/12 03:09:24;;;;;;;4.15;3.17;;;18.60;86.50;;;;;;5058230;28;20027;-47
2022/08/12 03:11:55;;;;;;;12.07;3.60;;;18.60;88.60;;;;;;5060344;28;20053;-48
2022/08/12 03:14:22;;;;;;;7.10;4.55;;;18.60;89.00;;;;;;5068139;28;20052;-48
2022/08/12 03:16:50;;;;;;;5.38;4.00;;;18.50;89.20;;;;;;5069014;28;20091;-50
2022/08/12 03:19:19;;;;;;;3.90;3.50;;;18.50;90.20;;;;;;5072581;28;20132;-47
2022/08/12 03:21:46;;;;;;;6.90;3.80;;;18.50;90.20;;;;;;5071752;28;20083;-48
2022/08/12 03:24:16;;;;;;;5.65;3.65;;;18.50;90.30;;;;;;5071736;28;20068;-47
2022/08/12 03:26:42;;;;;;;4.90;3.80;;;18.50;90.40;;;;;;5071166;28;20053;-47
2022/08/12 03:29:09;;;;;;;6.15;3.58;;;18.40;90.40;;;;;;5070281;28;20048;-46
2022/08/12 03:31:36;;;;;;;5.82;3.55;;;18.40;90.40;;;;;;5068593;28;20467;-51
2022/08/12 03:34:05;;;;;;;6.22;3.78;;;18.40;90.40;;;;;;5071449;28;20055;-49
2022/08/12 03:36:33;;;;;;;9.02;3.70;;;18.40;90.70;;;;;;5062862;28;20396;-46
2022/08/12 03:41:57;;;;;;;5.80;3.78;;;18.30;90.50;;;;;;5085662;28;20402;-42
2022/08/12 04:00:57;;;;;;;7.35;4.00;;;18.10;91.70;;;;;;5088006;28;20041;-50
2022/08/12 04:06:08;;;;;;;9.20;3.90;;;18.10;91.40;;;;;;5085825;28;20049;-50
2022/08/12 04:08:35;;;;;;;5.32;4.10;;;18.10;91.30;;;;;;5082260;28;20079;-47
2022/08/12 04:13:47;;;;;;;6.43;3.80;;;18.00;91.50;;;;;;5087891;28;20052;-46
2022/08/12 04:16:14;;;;;;;5.38;3.75;;;18.00;91.60;;;;;;5075921;28;20080;-47
2022/08/12 04:18:41;;;;;;;6.30;4.00;;;18.00;91.80;;;;;;5088639;28;20510;-48
2022/08/12 04:21:09;;;;;;;5.28;3.92;;;18.00;92.10;;;;;;5088379;28;20139;-48
2022/08/12 04:23:37;;;;;;;5.10;3.65;;;18.00;91.90;;;;;;5080349;28;20048;-48
2022/08/12 04:26:04;;;;;;;6.75;3.30;;;18.00;91.90;;;;;;5077626;28;20085;-45
2022/08/12 04:28:30;;;;;;;7.25;4.00;;;17.90;91.80;;;;;;5106679;28;20151;-50
2022/08/12 04:30:58;;;;;;;7.40;4.25;;;17.90;91.80;;;;;;5086750;28;20048;-45
2022/08/12 04:33:25;;;;;;;4.75;3.78;;;17.80;92.00;;;;;;5077513;28;20139;-47
2022/08/12 04:35:53;;;;;;;5.75;3.80;;;17.80;91.80;;;;;;5087666;28;20052;-46
2022/08/12 04:38:19;;;;;;;11.48;4.40;;;17.80;91.80;;;;;;5077072;28;20054;-47
2022/08/12 04:40:46;;;;;;;9.25;5.05;;;17.90;92.40;;;;;;5077451;28;20058;-47
2022/08/12 04:43:13;;;;;;;6.50;4.10;;;17.80;92.50;;;;;;5083520;28;20135;-49
2022/08/12 04:45:40;;;;;;;7.20;4.25;;;17.80;92.50;;;;;;5088373;28;20127;-47
2022/08/12 04:48:08;;;;;;;10.70;4.43;;;17.80;92.50;;;;;;5080561;28;20073;-48
2022/08/12 04:50:35;;;;;;;5.63;4.13;;;17.80;92.70;;;;;;5079877;28;20131;-49
2022/08/12 04:53:01;;;;;;;7.55;4.25;;;17.80;92.70;;;;;;5074629;28;20147;-50
2022/08/12 04:55:28;;;;;;;7.75;4.75;;;17.80;92.70;;;;;;5068560;28;20157;-47
2022/08/12 04:57:55;;;;;;;4.55;4.07;;;17.80;93.00;;;;;;5066808;28;20069;-45
2022/08/12 05:00:22;;;;;;;9.18;4.70;;;17.80;92.60;;;;;;5070199;28;20461;-44
2022/08/12 05:02:49;;;;;;;6.13;4.70;;;17.80;93.20;;;;;;5072804;28;20052;-48
2022/08/12 05:05:21;;;;;;;6.32;4.57;;;17.80;93.40;;;;;;5063520;28;20041;-49
2022/08/12 05:07:48;;;;;;;6.93;4.22;;;17.80;93.40;;;;;;5066411;28;20049;-45
2022/08/12 05:10:15;;;;;;;5.78;4.45;;;17.80;93.30;;;;;;5061743;28;20427;-48
2022/08/12 05:12:43;;;;;;;9.70;5.72;;;17.80;93.70;;;;;;5067357;28;20139;-51
2022/08/12 05:15:12;;;;;;;9.85;5.72;;;17.80;94.20;;;;;;5055352;28;20045;-49
2022/08/12 05:17:39;;;;;;;10.90;5.07;;;17.80;94.50;;;;;;5063237;28;20538;-49
2022/08/12 05:20:08;;;;;;;11.00;5.60;;;17.80;94.80;;;;;;5057170;28;20059;-51
2022/08/12 05:22:36;;;;;;;6.90;5.07;;;17.80;95.20;;;;;;5063312;28;20072;-47
2022/08/12 05:25:03;;;;;;;15.98;5.63;;;17.80;95.50;;;;;;5073141;28;20131;-52
2022/08/12 05:27:30;;;;;;;7.47;5.50;;;17.80;95.60;;;;;;5063316;28;20045;-49
2022/08/12 05:29:57;;;;;;;5.07;3.97;;;17.80;95.80;;;;;;5061227;28;20484;-49
2022/08/12 05:32:24;;;;;;;10.07;6.10;;;17.90;95.40;;;;;;5056404;28;20568;-45
2022/08/12 05:34:52;;;;;;;9.50;6.00;;;17.90;95.70;;;;;;5059109;28;20063;-46
2022/08/12 05:37:19;;;;;;;12.32;5.28;;;17.90;96.10;;;;;;5058808;28;20056;-49
2022/08/12 05:39:47;;;;;;;17.70;5.38;;;18.00;96.10;;;;;;5057273;28;20056;-47
2022/08/12 05:42:13;;;;;;;11.93;5.78;;;18.00;96.30;;;;;;5073770;28;20521;-48
2022/08/12 05:44:40;;;;;;;15.25;6.10;;;18.00;96.60;;;;;;5071493;28;20484;-47
2022/08/12 05:47:07;;;;;;;7.40;5.00;;;18.10;96.70;;;;;;5058588;28;20056;-52
2022/08/12 05:49:39;;;;;;;11.23;5.43;;;18.20;96.60;;;;;;5058551;28;20132;-48
2022/08/12 05:52:06;;;;;;;9.27;5.22;;;18.30;96.70;;;;;;5064634;28;20055;-50
2022/08/12 05:54:33;;;;;;;6.45;5.18;;;18.40;96.60;;;;;;5022099;22;20136;-43
2022/08/12 05:57:01;;;;;;;9.15;5.28;;;18.50;96.70;;;;;;5034546;28;20045;-47
2022/08/12 05:59:28;;;;;;;8.50;4.32;;;18.60;96.70;;;;;;5034380;28;20049;-47
2022/08/12 06:02:02;;;;;;;8.75;5.00;;;18.70;96.50;;;;;;5024429;28;20053;-49
2022/08/12 06:04:31;;;;;;;8.45;5.10;;;18.80;96.40;;;;;;5051677;28;20060;-46
2022/08/12 06:06:57;;;;;;;8.65;5.00;;;18.90;96.30;;;;;;5050494;28;20087;-43
2022/08/12 06:09:25;;;;;;;10.35;5.40;;;19.10;96.40;;;;;;5041362;28;20080;-46
2022/08/12 06:11:51;;;;;;;9.95;5.07;;;19.20;96.30;;;;;;5050109;28;20045;-48
2022/08/12 06:14:21;;;;;;;10.80;4.65;;;19.30;96.20;;;;;;5051822;28;20135;-48
2022/08/12 06:16:48;;;;;;;10.05;4.80;;;19.40;96.10;;;;;;5050275;28;20049;-47
2022/08/12 06:19:15;;;;;;;11.35;5.10;;;19.50;95.90;;;;;;5032650;28;20087;-43
2022/08/12 06:21:42;;;;;;;9.98;4.60;;;19.60;95.80;;;;;;5021896;28;20037;-48
2022/08/12 06:24:12;;;;;;;6.25;4.45;;;19.80;95.70;;;;;;5034512;28;20052;-49
2022/08/12 06:26:39;;;;;;;18.33;4.65;;;19.90;95.50;;;;;;5034152;28;20053;-48
2022/08/12 06:29:06;;;;;;;10.60;4.85;;;20.00;95.30;;;;;;5051760;28;20053;-45
2022/08/12 06:31:34;;;;;;;8.50;4.80;;;20.10;95.30;;;;;;5046729;28;20099;-50
2022/08/12 06:34:01;;;;;;;11.00;5.00;;;20.30;95.00;;;;;;5051110;28;20048;-45
2022/08/12 06:36:28;;;;;;;8.30;4.75;;;20.40;94.60;;;;;;5038152;28;20056;-46
2022/08/12 06:38:55;;;;;;;8.30;4.40;;;20.50;94.40;;;;;;5033475;28;20144;-45
2022/08/12 06:44:21;;;;;;;10.27;4.10;;;20.80;94.10;;;;;;4970715;28;20054;-44
2022/08/12 06:46:49;;;;;;;8.50;4.10;;;20.90;93.90;;;;;;4989214;28;20050;-50
2022/08/12 06:49:15;;;;;;;6.72;4.30;;;21.00;93.60;;;;;;5013019;28;20140;-45
2022/08/12 06:51:42;;;;;;;10.27;4.10;;;21.20;93.20;;;;;;5032118;28;20131;-47
2022/08/12 06:54:10;;;;;;;10.95;3.92;;;21.30;93.00;;;;;;5049981;28;20057;-47
2022/08/12 06:56:37;;;;;;;7.07;3.47;;;21.50;92.70;;;;;;5051384;28;20496;-42
2022/08/12 06:59:03;;;;;;;7.75;3.72;;;21.60;92.70;;;;;;5050516;28;20099;-52
2022/08/12 07:01:30;;;;;;;5.88;3.88;;;21.80;92.30;;;;;;5051616;28;20045;-43
2022/08/12 07:03:58;;;;;;;14.95;4.68;;;21.90;91.90;;;;;;5051712;28;20048;-49
2022/08/12 07:06:25;;;;;;;11.80;4.50;;;22.00;91.70;;;;;;5050202;28;20175;-44
2022/08/12 07:08:52;;;;;;;6.38;3.72;;;22.10;91.30;;;;;;5049029;28;20059;-49
2022/08/12 07:11:19;;;;;;;8.55;3.67;;;22.30;91.20;;;;;;5028215;28;20144;-50
2022/08/12 07:13:49;;;;;;;8.00;3.63;;;22.50;91.00;;;;;;5050333;28;20139;-52
2022/08/12 07:16:17;;;;;;;4.30;3.40;;;22.60;90.60;;;;;;5032187;28;20459;-48
2022/08/12 07:18:46;;;;;;;5.85;3.30;;;22.70;90.30;;;;;;5050267;28;20139;-48
2022/08/12 07:21:14;;;;;;;9.52;3.53;;;22.90;90.10;;;;;;5013902;28;20045;-49
2022/08/12 07:23:41;;;;;;;10.18;3.70;;;23.00;90.10;;;;;;5017143;28;20135;-49
2022/08/12 07:26:08;;;;;;;10.95;3.13;;;23.20;89.60;;;;;;5049979;28;20400;-44
2022/08/12 07:28:38;;;;;;;8.27;3.17;;;23.30;89.40;;;;;;5049005;28;20131;-44
2022/08/12 07:31:07;;;;;;;6.90;3.20;;;23.50;88.20;;;;;;5020824;28;20077;-43
2022/08/12 07:33:37;;;;;;;6.15;3.17;;;23.60;87.90;;;;;;5024811;28;20041;-52
2022/08/12 07:36:05;;;;;;;11.70;3.17;;;23.80;87.70;;;;;;5049586;28;20513;-44
2022/08/12 07:38:34;;;;;;;7.65;3.30;;;23.90;86.90;;;;;;5039709;28;20128;-48
2022/08/12 07:41:05;;;;;;;7.97;3.00;;;24.10;85.50;;;;;;5036987;28;20087;-51
2022/08/12 07:43:34;;;;;;;8.00;3.17;;;24.20;84.60;;;;;;5033425;28;20085;-44
2022/08/12 07:46:01;;;;;;;6.70;2.95;;;24.30;83.60;;;;;;5033402;28;20288;-52
2022/08/12 07:48:29;;;;;;;8.02;3.03;;;24.50;83.60;;;;;;5050957;28;20053;-52
2022/08/12 07:50:55;;;;;;;6.65;3.72;;;24.60;83.40;;;;;;5032637;28;20053;-44
2022/08/12 07:53:22;;;;;;;7.30;3.17;;;24.80;82.60;;;;;;5050565;28;20548;-49
2022/08/12 07:55:50;;;;;;;5.47;3.25;;;25.00;81.30;;;;;;5050437;28;20485;-48
2022/08/12 07:58:17;;;;;;;5.57;3.10;;;25.10;80.60;;;;;;5050770;28;20061;-47
2022/08/12 08:00:44;;;;;;;12.98;3.38;;;25.30;80.50;;;;;;5050711;28;20084;-46
2022/08/12 08:03:12;;;;;;;9.45;3.13;;;25.40;79.80;;;;;;5050086;28;20091;-53
2022/08/12 08:05:39;;;;;;;7.22;2.85;;;25.60;79.90;;;;;;5032689;28;20057;-51
2022/08/12 08:08:19;;;;;;;13.23;3.72;;;25.80;78.90;;;;;;5049799;28;20092;-49
2022/08/12 08:10:46;;;;;;;10.53;3.37;;;26.00;78.90;;;;;;5049897;28;20484;-50
2022/08/12 08:13:14;;;;;;;7.05;2.60;;;26.10;78.10;;;;;;5049528;28;20339;-52
2022/08/12 08:15:40;;;;;;;4.97;3.08;;;26.30;77.90;;;;;;5048540;28;20045;-49
2022/08/12 08:18:08;;;;;;;8.68;3.40;;;26.40;75.90;;;;;;5032897;28;20095;-47
2022/08/12 08:20:38;;;;;;;7.43;2.75;;;26.50;75.40;;;;;;5050507;28;20406;-46
2022/08/12 08:23:07;;;;;;;12.77;3.10;;;26.70;75.50;;;;;;5026505;28;20132;-46
2022/08/12 08:25:37;;;;;;;6.47;3.15;;;26.80;74.30;;;;;;5033905;28;20045;-48
2022/08/12 08:28:06;;;;;;;6.10;2.93;;;27.00;72.20;;;;;;5035774;28;20053;-45
2022/08/12 08:30:35;;;;;;;7.93;2.97;;;27.00;71.80;;;;;;5052126;28;20084;-49
2022/08/12 08:33:02;;;;;;;10.38;2.67;;;27.20;72.00;;;;;;5053056;28;20500;-49
2022/08/12 08:35:29;;;;;;;6.47;2.40;;;27.40;71.10;;;;;;5054050;28;20477;-46
2022/08/12 08:38:06;;;;;;;5.78;2.53;;;27.50;69.80;;;;;;5054133;28;20521;-42
2022/08/12 08:43:19;;;;;;;6.60;2.70;;;27.90;69.50;;;;;;5034904;28;20136;-44
2022/08/12 08:45:48;;;;;;;6.18;2.55;;;28.00;68.00;;;;;;5054082;28;20455;-51
2022/08/12 08:48:15;;;;;;;3.78;2.30;;;28.10;68.30;;;;;;5036551;28;20377;-50
2022/08/12 08:50:42;;;;;;;9.75;2.70;;;28.30;67.40;;;;;;5053847;28;20481;-47
2022/08/12 08:53:09;;;;;;;4.55;2.65;;;28.40;66.20;;;;;;5054068;28;20126;-50
2022/08/12 08:55:36;;;;;;;5.00;2.55;;;28.60;65.30;;;;;;5053937;28;20389;-52
2022/08/12 08:58:03;;;;;;;11.48;2.58;;;28.80;65.60;;;;;;5053970;28;20136;-53
2022/08/12 09:00:30;;;;;;;9.48;2.42;;;28.90;63.90;;;;;;5035794;28;20499;-50
2022/08/12 09:02:58;;;;;;;6.88;2.75;;;29.00;64.10;;;;;;5052860;28;20052;-49
2022/08/12 09:05:24;;;;;;;8.45;2.35;;;29.20;63.20;;;;;;5050835;28;20144;-52
2022/08/12 09:07:51;;;;;;;12.52;2.75;;;29.30;61.20;;;;;;5051456;28;20144;-52
2022/08/12 09:10:19;;;;;;;9.88;2.38;;;29.40;60.60;;;;;;5053510;28;20095;-52
2022/08/12 09:15:30;;;;;;;5.65;2.40;;;29.60;61.40;;;;;;5046970;28;20492;-52
2022/08/12 09:17:58;;;;;;;6.18;2.47;;;29.70;61.40;;;;;;5054093;28;20136;-51
2022/08/12 09:20:25;;;;;;;7.53;2.40;;;29.90;60.40;;;;;;5054132;28;20091;-53
2022/08/12 09:22:52;;;;;;;11.35;2.40;;;30.10;59.90;;;;;;5035680;28;20045;-51
2022/08/12 09:25:19;;;;;;;9.63;2.53;;;30.30;58.90;;;;;;5054218;28;20505;-51
2022/08/12 09:27:46;;;;;;;6.55;2.60;;;30.40;58.40;;;;;;5053321;28;20467;-49
2022/08/12 09:30:14;;;;;;;4.28;2.30;;;30.60;58.70;;;;;;5050979;28;20059;-49
2022/08/12 09:32:42;;;;;;;8.50;2.20;;;30.80;58.10;;;;;;5045156;28;20045;-53
2022/08/12 09:35:13;;;;;;;5.88;2.30;;;30.90;56.50;;;;;;5049486;28;20056;-47
2022/08/12 09:37:40;;;;;;;;;;;30.90;55.60;;;;;;5035019;28;20096;-53
2022/08/12 09:40:08;;;;;;;4.30;2.67;;;30.80;55.40;;;;;;5043776;28;19964;-49
2022/08/12 09:45:22;;;;;;;10.93;2.22;;;30.90;52.80;;;;;;5051578;28;20049;-54
2022/08/12 09:47:49;;;;;;;4.95;2.42;;;30.90;53.30;;;;;;5020813;28;20144;-54
2022/08/12 09:50:18;;;;;;;7.47;2.45;;;31.10;52.00;;;;;;5054289;28;20099;-49
2022/08/12 09:52:45;;;;;;;5.70;2.53;;;31.30;52.10;;;;;;5054042;28;20044;-51
2022/08/12 09:55:12;;;;;;;8.77;2.53;;;31.40;51.60;;;;;;5054319;28;20084;-54
2022/08/12 09:57:38;;;;;;;6.88;2.38;;;31.50;52.00;;;;;;5035309;28;20148;-54
2022/08/12 10:00:07;;;;;;;4.35;2.47;;;31.50;52.20;;;;;;5048493;28;20129;-45
2022/08/12 10:02:37;;;;;;;5.68;2.03;;;31.70;50.40;;;;;;5053975;28;20382;-52
2022/08/12 10:05:05;;;;;;;12.27;3.08;;;31.70;50.40;;;;;;5050383;28;20440;-53
2022/08/12 10:07:33;;;;;;;6.57;2.45;;;31.90;50.80;;;;;;5054116;28;20047;-54
2022/08/12 10:09:59;;;;;;;9.13;2.33;;;32.00;50.80;;;;;;5054238;28;20464;-53
2022/08/12 10:15:11;;;;;;;8.10;2.25;;;32.30;48.50;;;;;;5051744;28;20053;-53
2022/08/12 10:17:38;;;;;;;7.10;2.30;;;32.30;48.30;;;;;;5052369;28;20049;-54
2022/08/12 10:20:05;;;;;;;4.68;2.00;;;32.30;47.00;;;;;;5053310;28;20127;-52
2022/08/12 10:22:35;;;;;;;4.63;1.90;;;32.40;47.20;;;;;;5053245;28;20132;-54
2022/08/12 10:30:32;;;;;;;12.73;2.75;;;32.60;47.00;;;;;;5032225;28;20053;-52
2022/08/12 10:32:59;;;;;;;7.70;2.17;;;32.80;46.90;;;;;;5050653;28;20453;-53
2022/08/12 10:35:30;;;;;;;6.03;2.28;;;32.80;47.00;;;;;;5033663;28;20083;-55
2022/08/12 10:38:00;;;;;;;4.80;1.92;;;32.90;46.40;;;;;;5053489;28;20052;-55
2022/08/12 10:40:28;;;;;;;4.20;2.20;;;33.10;46.60;;;;;;5036065;28;20076;-53
2022/08/12 10:45:41;;;;;;;5.00;2.13;;;33.30;46.40;;;;;;5035669;28;20056;-49
2022/08/12 10:48:07;;;;;;;6.88;2.22;;;33.40;46.10;;;;;;5051957;28;20080;-54
2022/08/12 10:50:35;;;;;;;6.05;2.13;;;33.50;44.70;;;;;;5035214;28;20501;-55
2022/08/12 10:53:06;;;;;;;6.30;2.00;;;33.60;43.70;;;;;;5034419;28;20081;-55
2022/08/12 10:55:33;;;;;;;3.90;1.70;;;33.60;44.10;;;;;;5052748;28;20057;-46
2022/08/12 10:58:03;;;;;;;9.75;2.10;;;33.70;43.20;;;;;;5052648;28;20114;-55
2022/08/12 11:00:33;;;;;;;3.67;2.17;;;33.70;43.30;;;;;;5052703;28;20128;-53
2022/08/12 11:03:02;;;;;;;5.68;2.28;;;33.70;43.20;;;;;;5048153;28;20048;-53
2022/08/12 11:05:33;;;;;;;6.00;2.25;;;33.70;43.50;;;;;;5050200;28;21097;-48
2022/08/12 11:08:00;;;;;;;3.53;1.70;;;33.80;43.90;;;;;;5043998;28;20049;-52
2022/08/12 11:10:30;;;;;;;3.78;1.80;;;33.90;43.30;;;;;;5052685;28;20080;-55
2022/08/12 11:12:58;;;;;;;5.35;2.00;;;33.90;43.40;;;;;;5052540;28;20048;-54
2022/08/12 11:15:25;;;;;;;4.35;1.90;;;33.80;43.10;;;;;;5050525;28;20045;-56
2022/08/12 11:17:52;;;;;;;5.03;2.17;;;33.90;43.70;;;;;;5031931;28;20124;-54
2022/08/12 11:20:19;;;;;;;5.13;1.95;;;34.00;43.20;;;;;;5049839;28;20516;-55
2022/08/12 11:22:55;;;;;;;5.30;2.13;;;34.10;43.30;;;;;;5032263;28;20045;-55
2022/08/12 11:25:22;;;;;;;5.03;2.00;;;34.20;44.10;;;;;;5042287;28;20120;-50
2022/08/12 11:27:50;;;;;;;6.55;2.30;;;34.20;43.20;;;;;;5034152;28;20053;-54
2022/08/12 11:30:17;;;;;;;5.45;2.15;;;34.30;43.20;;;;;;5032663;28;20099;-52
2022/08/12 11:32:43;;;;;;;7.88;2.05;;;34.30;42.70;;;;;;5046681;28;20115;-48
2022/08/12 11:35:10;;;;;;;4.68;1.75;;;34.40;43.70;;;;;;5046721;28;20127;-55
2022/08/12 11:37:37;;;;;;;7.50;2.20;;;34.50;42.90;;;;;;5031393;28;20480;-55
2022/08/12 11:40:05;;;;;;;6.22;1.60;;;34.60;42.30;;;;;;5052088;28;20052;-54
2022/08/12 11:42:32;;;;;;;8.38;2.00;;;34.60;41.90;;;;;;5048785;28;20052;-55
2022/08/12 11:45:00;;;;;;;9.30;2.03;;;34.60;42.10;;;;;;5024691;28;20128;-55
2022/08/12 11:47:26;;;;;;;5.30;2.03;;;34.60;42.20;;;;;;5026728;28;20111;-50
2022/08/12 11:49:53;;;;;;;10.13;2.38;;;34.60;42.40;;;;;;5052173;28;20485;-55
2022/08/12 11:52:21;;;;;;;7.88;2.10;;;34.60;41.20;;;;;;5051890;28;20488;-56
2022/08/12 11:55:13;;;;;;;7.03;1.90;;;34.70;42.50;;;;;;5052022;28;20386;-51
2022/08/12 11:57:58;;;;;;;8.73;2.30;;;34.90;42.50;;;;;;5049684;28;20053;-55
2022/08/12 12:00:26;;;;;;;7.07;1.98;;;34.90;42.40;;;;;;5033390;28;20084;-54
2022/08/12 12:02:53;;;;;;;7.03;2.10;;;35.00;41.50;;;;;;5036459;28;20142;-54
2022/08/12 12:05:20;;;;;;;9.63;2.00;;;35.10;41.00;;;;;;5034033;28;20143;-51
2022/08/12 12:07:46;;;;;;;4.85;2.08;;;35.20;41.00;;;;;;5054166;28;20049;-48
2022/08/12 12:10:14;;;;;;;2.70;1.88;;;35.30;41.10;;;;;;5037832;28;20049;-55
2022/08/12 12:12:41;;;;;;;3.50;1.88;;;35.30;40.60;;;;;;5055714;28;20358;-55
2022/08/12 12:15:09;;;;;;;3.85;2.00;;;35.50;42.40;;;;;;5053718;28;20378;-55
2022/08/12 12:17:37;;;;;;;7.10;2.10;;;35.60;41.20;;;;;;5055817;28;20458;-49
2022/08/12 12:20:06;;;;;;;4.25;1.90;;;35.60;40.30;;;;;;5054657;28;20057;-55
2022/08/12 12:22:33;;;;;;;4.88;2.13;;;35.50;40.80;;;;;;5027214;28;20057;-49
2022/08/12 12:25:00;;;;;;;4.45;2.05;;;35.60;41.10;;;;;;5036735;28;20141;-55
2022/08/12 12:27:26;;;;;;;5.93;2.13;;;35.60;40.90;;;;;;5054287;28;20080;-54
2022/08/12 12:29:55;;;;;;;5.13;2.20;;;35.80;40.40;;;;;;5054023;28;20136;-54
2022/08/12 12:32:22;;;;;;;6.00;2.00;;;35.80;40.80;;;;;;5055427;28;20049;-52
2022/08/12 12:34:50;;;;;;;4.68;2.00;;;35.80;40.50;;;;;;5051332;28;20140;-55
2022/08/12 12:37:16;;;;;;;5.85;1.90;;;35.80;41.90;;;;;;5050075;28;20120;-54
2022/08/12 12:39:43;;;;;;;6.95;2.20;;;35.80;41.70;;;;;;5055329;28;20044;-54
2022/08/12 12:42:10;;;;;;;9.45;2.50;;;35.90;41.00;;;;;;5055383;28;20467;-53
2022/08/12 12:44:37;;;;;;;7.25;1.98;;;35.80;40.20;;;;;;5037063;28;20132;-55
2022/08/12 12:47:04;;;;;;;5.93;2.20;;;35.70;40.10;;;;;;5051823;28;20568;-52
2022/08/12 12:49:30;;;;;;;4.55;2.20;;;35.70;39.70;;;;;;5054398;28;20049;-52
2022/08/12 12:51:58;;;;;;;4.82;2.30;;;35.70;39.60;;;;;;5054099;28;20098;-55
2022/08/12 12:54:25;;;;;;;10.00;2.25;;;35.80;40.00;;;;;;5041772;28;20128;-54
2022/08/12 12:56:53;;;;;;;3.20;2.05;;;35.80;39.50;;;;;;5039664;28;20104;-52
2022/08/12 12:59:23;;;;;;;7.85;2.28;;;35.80;42.30;;;;;;5033190;28;20076;-54
2022/08/12 13:01:50;;;;;;;5.37;2.30;;;35.90;41.30;;;;;;5028793;28;20493;-52
2022/08/12 13:04:17;;;;;;;3.33;2.15;;;35.90;40.80;;;;;;5032294;28;20387;-55
2022/08/12 13:06:49;;;;;;;9.07;2.30;;;35.90;40.40;;;;;;5030792;28;20534;-54
2022/08/12 13:09:17;;;;;;;8.98;2.10;;;36.00;39.70;;;;;;5031836;28;20145;-51
2022/08/12 13:11:45;;;;;;;8.93;2.45;;;35.90;40.50;;;;;;5033120;28;20115;-55
2022/08/12 13:14:12;;;;;;;4.32;2.17;;;35.90;39.90;;;;;;5033414;28;20446;-55
2022/08/12 13:16:42;;;;;;;6.43;2.17;;;35.90;40.60;;;;;;5033457;28;20132;-55
2022/08/12 13:19:09;;;;;;;10.37;2.20;;;36.00;41.00;;;;;;5032131;28;20052;-56
2022/08/12 13:22:14;;;;;;;8.70;2.03;;;36.20;40.80;;;;;;5032539;28;20049;-54
2022/08/12 13:24:24;;;;;;;4.55;2.20;;;36.20;39.30;;;;;;5029267;28;20151;-56
2022/08/12 13:26:51;;;;;;;3.35;2.00;;;36.30;40.00;;;;;;5033119;28;20068;-54
2022/08/12 13:29:17;;;;;;;6.22;2.28;;;36.40;40.50;;;;;;5033574;28;20092;-55
2022/08/12 13:31:44;;;;;;;5.75;2.45;;;36.40;40.20;;;;;;5033718;28;20140;-55
2022/08/12 13:34:13;;;;;;;7.32;2.20;;;36.50;40.20;;;;;;5033439;28;20143;-54
2022/08/12 13:36:44;;;;;;;7.88;2.33;;;36.50;40.00;;;;;;5034651;28;20091;-54
2022/08/12 13:39:10;;;;;;;6.70;2.30;;;36.50;39.20;;;;;;5034717;28;20059;-52
2022/08/12 13:41:39;;;;;;;5.22;2.10;;;36.50;39.40;;;;;;5034421;28;20456;-51
2022/08/12 13:44:06;;;;;;;5.47;2.38;;;36.40;38.60;;;;;;5033591;28;20444;-54
2022/08/12 13:46:34;;;;;;;10.52;2.78;;;36.40;39.20;;;;;;5032876;28;20558;-54
2022/08/12 13:49:02;;;;;;;4.80;2.10;;;36.40;39.20;;;;;;5033680;28;20049;-54
2022/08/12 13:51:30;;;;;;;16.27;2.60;;;36.30;39.20;;;;;;5033181;28;20053;-53
2022/08/12 13:53:56;;;;;;;7.90;2.42;;;36.40;40.10;;;;;;5032069;28;20523;-54
2022/08/12 13:56:25;;;;;;;8.98;2.42;;;36.30;39.60;;;;;;5053478;28;20052;-54
2022/08/12 13:58:53;;;;;;;11.35;3.83;;;36.20;39.00;;;;;;5054385;28;20143;-53
2022/08/12 14:01:20;;;;;;;5.03;2.25;;;36.00;38.80;;;;;;5054209;28;20088;-54
2022/08/12 14:03:47;;;;;;;6.05;2.38;;;36.00;38.80;;;;;;5054219;28;20052;-53
2022/08/12 14:06:14;;;;;;;4.75;1.92;;;36.00;39.40;;;;;;5036492;28;20485;-54
2022/08/12 14:08:41;;;;;;;5.90;2.50;;;36.00;39.10;;;;;;5053968;28;20148;-55
2022/08/12 14:11:08;;;;;;;7.38;2.45;;;36.10;39.10;;;;;;5036414;28;20132;-53
2022/08/12 14:13:38;;;;;;;5.85;2.40;;;36.10;38.40;;;;;;5054118;28;20068;-56
2022/08/12 14:16:09;;;;;;;4.70;2.75;;;36.10;39.50;;;;;;5053257;28;20081;-56
2022/08/12 14:18:37;;;;;;;5.63;2.17;;;36.20;40.30;;;;;;5053971;28;20111;-50
2022/08/12 14:21:08;;;;;;;6.95;2.50;;;36.40;39.90;;;;;;5053945;28;20568;-54
2022/08/12 14:23:37;;;;;;;7.43;2.40;;;36.60;41.00;;;;;;5052701;28;20408;-56
2022/08/12 14:26:05;;;;;;;7.63;2.17;;;36.70;39.10;;;;;;5034414;28;20137;-52
2022/08/12 14:28:33;;;;;;;9.98;2.33;;;36.80;39.80;;;;;;5053762;28;20126;-55
2022/08/12 14:31:03;;;;;;;6.00;2.63;;;36.90;39.60;;;;;;5036247;28;20473;-55
2022/08/12 14:33:32;;;;;;;8.77;2.57;;;36.90;38.90;;;;;;5035553;28;20496;-55
2022/08/12 14:35:59;;;;;;;4.45;2.55;;;36.80;38.20;;;;;;5034557;28;20053;-56